Terminal Aerodrome Forecast
Issued by NWS

Home | Current Version | Previous Version | Text Only | Print | Product List | Glossary On
Versions: 1 2 3 4 5 6 7 8 9 10 11 12 13 14 15
003
FTUS41 KCAR 240538
TAFHUL
TAF
KHUL 240538Z 2406/2506 15006KT P6SM BKN200
     FM240900 VRB03KT P6SM SCT020
     FM241200 15006KT P6SM BKN200
     FM241800 15006KT P6SM BKN060
     FM250000 17006KT P6SM VCSH OVC025
     FM250300 17006KT P6SM VCSH OVC015=

USA.gov is the U.S. government's official web portal to all federal, state and local government web resources and services.